sensor_id;sensor_type;location;lat;lon;timestamp;temperature;humidity
21271;DHT22;10795;50.796;3.860;2022-12-07T00:02:09;5.00;99.90
21271;DHT22;10795;50.796;3.860;2022-12-07T00:04:34;5.00;99.90
21271;DHT22;10795;50.796;3.860;2022-12-07T00:07:00;4.90;99.90
21271;DHT22;10795;50.796;3.860;2022-12-07T00:09:27;5.20;99.90
21271;DHT22;10795;50.796;3.860;2022-12-07T00:11:53;5.50;99.90
21271;DHT22;10795;50.796;3.860;2022-12-07T00:14:19;5.10;99.90
21271;DHT22;10795;50.796;3.860;2022-12-07T00:16:45;4.90;99.90
21271;DHT22;10795;50.796;3.860;2022-12-07T00:19:14;5.00;99.90
21271;DHT22;10795;50.796;3.860;2022-12-07T00:21:40;5.10;99.90
21271;DHT22;10795;50.796;3.860;2022-12-07T00:24:06;5.10;99.90
21271;DHT22;10795;50.796;3.860;2022-12-07T00:26:38;5.20;99.90
21271;DHT22;10795;50.796;3.860;2022-12-07T00:29:09;5.40;99.90
21271;DHT22;10795;50.796;3.860;2022-12-07T00:31:37;5.30;99.90
21271;DHT22;10795;50.796;3.860;2022-12-07T00:34:07;5.30;99.90
21271;DHT22;10795;50.796;3.860;2022-12-07T00:36:36;5.40;99.90
21271;DHT22;10795;50.796;3.860;2022-12-07T00:39:02;5.30;99.90
21271;DHT22;10795;50.796;3.860;2022-12-07T00:41:34;5.40;99.90
21271;DHT22;10795;50.796;3.860;2022-12-07T00:44:00;5.30;99.90
21271;DHT22;10795;50.796;3.860;2022-12-07T00:46:29;5.50;99.90
21271;DHT22;10795;50.796;3.860;2022-12-07T00:48:57;5.50;99.90
21271;DHT22;10795;50.796;3.860;2022-12-07T00:51:27;5.50;99.90
21271;DHT22;10795;50.796;3.860;2022-12-07T00:53:56;5.50;99.90
21271;DHT22;10795;50.796;3.860;2022-12-07T00:56:26;5.50;99.90
21271;DHT22;10795;50.796;3.860;2022-12-07T00:58:57;5.60;99.90
21271;DHT22;10795;50.796;3.860;2022-12-07T01:01:23;5.50;99.90
21271;DHT22;10795;50.796;3.860;2022-12-07T01:03:50;5.50;99.90
21271;DHT22;10795;50.796;3.860;2022-12-07T01:06:17;5.60;99.90
21271;DHT22;10795;50.796;3.860;2022-12-07T01:08:43;5.70;99.90
21271;DHT22;10795;50.796;3.860;2022-12-07T01:11:13;5.50;99.90
21271;DHT22;10795;50.796;3.860;2022-12-07T01:13:39;5.60;99.90
21271;DHT22;10795;50.796;3.860;2022-12-07T01:16:06;5.60;99.90
21271;DHT22;10795;50.796;3.860;2022-12-07T01:18:35;5.50;99.90
21271;DHT22;10795;50.796;3.860;2022-12-07T01:21:13;5.50;99.90
21271;DHT22;10795;50.796;3.860;2022-12-07T01:23:40;5.50;99.90
21271;DHT22;10795;50.796;3.860;2022-12-07T01:26:14;5.40;99.90
21271;DHT22;10795;50.796;3.860;2022-12-07T01:28:40;5.50;99.90
21271;DHT22;10795;50.796;3.860;2022-12-07T01:31:08;5.70;99.90
21271;DHT22;10795;50.796;3.860;2022-12-07T01:33:38;5.60;99.90
21271;DHT22;10795;50.796;3.860;2022-12-07T01:36:07;5.60;99.90
21271;DHT22;10795;50.796;3.860;2022-12-07T01:38:33;5.30;99.90
21271;DHT22;10795;50.796;3.860;2022-12-07T01:41:03;5.20;99.90
21271;DHT22;10795;50.796;3.860;2022-12-07T01:43:30;5.50;99.90
21271;DHT22;10795;50.796;3.860;2022-12-07T01:45:56;5.60;99.90
21271;DHT22;10795;50.796;3.860;2022-12-07T01:48:31;5.20;99.90
21271;DHT22;10795;50.796;3.860;2022-12-07T01:51:02;5.00;99.90
21271;DHT22;10795;50.796;3.860;2022-12-07T01:53:29;5.10;99.90
21271;DHT22;10795;50.796;3.860;2022-12-07T01:55:59;5.20;99.90
21271;DHT22;10795;50.796;3.860;2022-12-07T01:58:25;5.00;99.90
21271;DHT22;10795;50.796;3.860;2022-12-07T02:00:51;5.10;99.90
21271;DHT22;10795;50.796;3.860;2022-12-07T02:03:25;5.40;99.90
21271;DHT22;10795;50.796;3.860;2022-12-07T02:05:53;5.00;99.90
21271;DHT22;10795;50.796;3.860;2022-12-07T02:08:20;5.00;99.90
21271;DHT22;10795;50.796;3.860;2022-12-07T02:10:48;4.90;99.90
21271;DHT22;10795;50.796;3.860;2022-12-07T02:13:18;4.90;99.90
21271;DHT22;10795;50.796;3.860;2022-12-07T02:24:24;4.90;99.90
21271;DHT22;10795;50.796;3.860;2022-12-07T02:27:11;4.90;99.90
21271;DHT22;10795;50.796;3.860;2022-12-07T02:29:49;4.90;99.90
21271;DHT22;10795;50.796;3.860;2022-12-07T02:32:23;4.80;99.90
21271;DHT22;10795;50.796;3.860;2022-12-07T02:37:46;4.70;99.90
21271;DHT22;10795;50.796;3.860;2022-12-07T02:40:28;5.00;99.90
21271;DHT22;10795;50.796;3.860;2022-12-07T02:43:09;5.10;99.90
21271;DHT22;10795;50.796;3.860;2022-12-07T02:45:39;4.90;99.90
21271;DHT22;10795;50.796;3.860;2022-12-07T02:48:07;5.10;99.90
21271;DHT22;10795;50.796;3.860;2022-12-07T02:50:34;5.40;99.90
21271;DHT22;10795;50.796;3.860;2022-12-07T02:53:00;5.30;99.90
21271;DHT22;10795;50.796;3.860;2022-12-07T02:55:31;4.90;99.90
21271;DHT22;10795;50.796;3.860;2022-12-07T03:00:59;5.00;99.90
21271;DHT22;10795;50.796;3.860;2022-12-07T03:03:31;4.90;99.90
21271;DHT22;10795;50.796;3.860;2022-12-07T03:08:48;5.00;99.90
21271;DHT22;10795;50.796;3.860;2022-12-07T03:13:52;4.90;99.90
21271;DHT22;10795;50.796;3.860;2022-12-07T03:16:50;4.60;99.90
21271;DHT22;10795;50.796;3.860;2022-12-07T03:19:20;4.60;99.90
21271;DHT22;10795;50.796;3.860;2022-12-07T03:24:21;4.40;99.90
21271;DHT22;10795;50.796;3.860;2022-12-07T03:26:59;4.60;99.90
21271;DHT22;10795;50.796;3.860;2022-12-07T03:29:45;4.70;99.90
21271;DHT22;10795;50.796;3.860;2022-12-07T03:35:13;5.20;99.90
21271;DHT22;10795;50.796;3.860;2022-12-07T03:38:04;4.90;99.90
21271;DHT22;10795;50.796;3.860;2022-12-07T03:40:40;5.00;99.90
21271;DHT22;10795;50.796;3.860;2022-12-07T03:43:08;4.80;99.90
21271;DHT22;10795;50.796;3.860;2022-12-07T03:48:44;4.70;99.90
21271;DHT22;10795;50.796;3.860;2022-12-07T03:51:24;4.80;99.90
21271;DHT22;10795;50.796;3.860;2022-12-07T03:53:59;5.10;99.90
21271;DHT22;10795;50.796;3.860;2022-12-07T03:56:29;5.30;99.90
21271;DHT22;10795;50.796;3.860;2022-12-07T03:58:55;5.10;99.90
21271;DHT22;10795;50.796;3.860;2022-12-07T04:01:23;4.90;99.90
21271;DHT22;10795;50.796;3.860;2022-12-07T04:03:49;4.80;99.90
21271;DHT22;10795;50.796;3.860;2022-12-07T04:06:14;4.70;99.90
21271;DHT22;10795;50.796;3.860;2022-12-07T04:08:40;4.60;99.90
21271;DHT22;10795;50.796;3.860;2022-12-07T04:11:06;4.70;99.90
21271;DHT22;10795;50.796;3.860;2022-12-07T04:13:32;4.60;99.90
21271;DHT22;10795;50.796;3.860;2022-12-07T04:16:18;4.90;99.90
21271;DHT22;10795;50.796;3.860;2022-12-07T04:18:43;4.70;99.90
21271;DHT22;10795;50.796;3.860;2022-12-07T04:21:09;4.80;99.90
21271;DHT22;10795;50.796;3.860;2022-12-07T04:23:35;4.50;99.90
21271;DHT22;10795;50.796;3.860;2022-12-07T04:26:03;4.50;99.90
21271;DHT22;10795;50.796;3.860;2022-12-07T04:28:29;4.70;99.90
21271;DHT22;10795;50.796;3.860;2022-12-07T04:30:55;4.70;99.90
21271;DHT22;10795;50.796;3.860;2022-12-07T04:33:21;4.60;99.90
21271;DHT22;10795;50.796;3.860;2022-12-07T04:35:49;4.70;99.90
21271;DHT22;10795;50.796;3.860;2022-12-07T04:38:15;4.60;99.90
21271;DHT22;10795;50.796;3.860;2022-12-07T04:40:41;4.50;99.90
21271;DHT22;10795;50.796;3.860;2022-12-07T04:43:06;4.70;99.90
21271;DHT22;10795;50.796;3.860;2022-12-07T04:45:32;4.70;99.90
21271;DHT22;10795;50.796;3.860;2022-12-07T04:47:58;4.90;99.90
21271;DHT22;10795;50.796;3.860;2022-12-07T04:50:24;5.00;99.90
21271;DHT22;10795;50.796;3.860;2022-12-07T04:52:50;5.20;99.90
21271;DHT22;10795;50.796;3.860;2022-12-07T04:55:19;5.40;99.90
21271;DHT22;10795;50.796;3.860;2022-12-07T04:57:45;5.70;99.90
21271;DHT22;10795;50.796;3.860;2022-12-07T05:00:12;5.90;99.90
21271;DHT22;10795;50.796;3.860;2022-12-07T05:02:38;5.50;99.90
21271;DHT22;10795;50.796;3.860;2022-12-07T05:05:04;4.90;99.90
21271;DHT22;10795;50.796;3.860;2022-12-07T05:07:30;4.70;99.90
21271;DHT22;10795;50.796;3.860;2022-12-07T05:09:55;4.40;99.90
21271;DHT22;10795;50.796;3.860;2022-12-07T05:12:21;4.20;99.90
21271;DHT22;10795;50.796;3.860;2022-12-07T05:14:47;4.10;99.90
21271;DHT22;10795;50.796;3.860;2022-12-07T05:17:13;4.40;99.90
21271;DHT22;10795;50.796;3.860;2022-12-07T05:19:39;4.30;99.90
21271;DHT22;10795;50.796;3.860;2022-12-07T05:22:05;4.20;99.90
21271;DHT22;10795;50.796;3.860;2022-12-07T05:24:31;4.30;99.90
21271;DHT22;10795;50.796;3.860;2022-12-07T05:26:56;4.30;99.90
21271;DHT22;10795;50.796;3.860;2022-12-07T05:29:22;4.30;99.90
21271;DHT22;10795;50.796;3.860;2022-12-07T05:31:48;4.30;99.90
21271;DHT22;10795;50.796;3.860;2022-12-07T05:34:14;4.30;99.90
21271;DHT22;10795;50.796;3.860;2022-12-07T05:36:40;4.20;99.90
21271;DHT22;10795;50.796;3.860;2022-12-07T05:39:06;4.10;99.90
21271;DHT22;10795;50.796;3.860;2022-12-07T05:41:32;4.10;99.90
21271;DHT22;10795;50.796;3.860;2022-12-07T05:44:16;4.20;99.90
21271;DHT22;10795;50.796;3.860;2022-12-07T05:46:42;4.80;99.90
21271;DHT22;10795;50.796;3.860;2022-12-07T05:49:08;4.60;99.90
21271;DHT22;10795;50.796;3.860;2022-12-07T05:51:34;4.40;99.90
21271;DHT22;10795;50.796;3.860;2022-12-07T05:54:00;4.50;99.90
21271;DHT22;10795;50.796;3.860;2022-12-07T05:56:26;4.60;99.90
21271;DHT22;10795;50.796;3.860;2022-12-07T05:58:52;4.90;99.90
21271;DHT22;10795;50.796;3.860;2022-12-07T06:01:36;5.10;99.90
21271;DHT22;10795;50.796;3.860;2022-12-07T06:04:02;4.90;99.90
21271;DHT22;10795;50.796;3.860;2022-12-07T06:06:28;5.10;99.90
21271;DHT22;10795;50.796;3.860;2022-12-07T06:08:54;5.10;99.90
21271;DHT22;10795;50.796;3.860;2022-12-07T06:11:20;4.90;99.90
21271;DHT22;10795;50.796;3.860;2022-12-07T06:14:04;5.00;99.90
21271;DHT22;10795;50.796;3.860;2022-12-07T06:16:30;4.80;99.90
21271;DHT22;10795;50.796;3.860;2022-12-07T06:18:55;4.60;99.90
21271;DHT22;10795;50.796;3.860;2022-12-07T06:21:21;4.60;99.90
21271;DHT22;10795;50.796;3.860;2022-12-07T06:23:47;4.50;99.90
21271;DHT22;10795;50.796;3.860;2022-12-07T06:26:13;4.50;99.90
21271;DHT22;10795;50.796;3.860;2022-12-07T06:28:39;4.50;99.90
21271;DHT22;10795;50.796;3.860;2022-12-07T06:31:06;4.40;99.90
21271;DHT22;10795;50.796;3.860;2022-12-07T06:33:32;4.50;99.90
21271;DHT22;10795;50.796;3.860;2022-12-07T06:35:58;4.40;99.90
21271;DHT22;10795;50.796;3.860;2022-12-07T06:38:24;4.60;99.90
21271;DHT22;10795;50.796;3.860;2022-12-07T06:40:50;4.50;99.90
21271;DHT22;10795;50.796;3.860;2022-12-07T06:43:18;4.40;99.90
21271;DHT22;10795;50.796;3.860;2022-12-07T06:45:44;4.50;99.90
21271;DHT22;10795;50.796;3.860;2022-12-07T06:48:10;4.30;99.90
21271;DHT22;10795;50.796;3.860;2022-12-07T06:50:35;4.60;99.90
21271;DHT22;10795;50.796;3.860;2022-12-07T06:53:01;4.20;99.90
21271;DHT22;10795;50.796;3.860;2022-12-07T06:55:27;4.00;99.90
21271;DHT22;10795;50.796;3.860;2022-12-07T06:57:53;4.10;99.90
21271;DHT22;10795;50.796;3.860;2022-12-07T07:00:19;4.30;99.90
21271;DHT22;10795;50.796;3.860;2022-12-07T07:02:45;4.10;99.90
21271;DHT22;10795;50.796;3.860;2022-12-07T07:05:11;4.40;99.90
21271;DHT22;10795;50.796;3.860;2022-12-07T07:07:36;4.40;99.90
21271;DHT22;10795;50.796;3.860;2022-12-07T07:10:02;4.30;99.90
21271;DHT22;10795;50.796;3.860;2022-12-07T07:12:28;4.30;99.90
21271;DHT22;10795;50.796;3.860;2022-12-07T07:14:54;4.30;99.90
21271;DHT22;10795;50.796;3.860;2022-12-07T07:17:20;4.60;99.90
21271;DHT22;10795;50.796;3.860;2022-12-07T07:19:46;4.50;99.90
21271;DHT22;10795;50.796;3.860;2022-12-07T07:22:12;4.50;99.90
21271;DHT22;10795;50.796;3.860;2022-12-07T07:24:37;4.70;99.90
21271;DHT22;10795;50.796;3.860;2022-12-07T07:27:03;5.10;99.90
21271;DHT22;10795;50.796;3.860;2022-12-07T07:29:29;4.90;99.90
21271;DHT22;10795;50.796;3.860;2022-12-07T07:31:55;4.50;99.90
21271;DHT22;10795;50.796;3.860;2022-12-07T07:34:20;4.40;99.90
21271;DHT22;10795;50.796;3.860;2022-12-07T07:36:46;4.40;99.90
21271;DHT22;10795;50.796;3.860;2022-12-07T07:39:12;4.70;99.90
21271;DHT22;10795;50.796;3.860;2022-12-07T07:41:40;4.70;99.90
21271;DHT22;10795;50.796;3.860;2022-12-07T07:44:11;5.00;99.90
21271;DHT22;10795;50.796;3.860;2022-12-07T07:46:37;5.30;99.90
21271;DHT22;10795;50.796;3.860;2022-12-07T07:49:03;5.80;99.90
21271;DHT22;10795;50.796;3.860;2022-12-07T07:51:29;5.90;99.90
21271;DHT22;10795;50.796;3.860;2022-12-07T07:53:54;5.40;99.90
21271;DHT22;10795;50.796;3.860;2022-12-07T07:56:20;5.20;99.90
21271;DHT22;10795;50.796;3.860;2022-12-07T07:58:46;5.30;99.90
21271;DHT22;10795;50.796;3.860;2022-12-07T08:01:11;5.40;99.90
21271;DHT22;10795;50.796;3.860;2022-12-07T08:03:39;5.60;99.90
21271;DHT22;10795;50.796;3.860;2022-12-07T08:06:05;5.30;99.90
21271;DHT22;10795;50.796;3.860;2022-12-07T08:08:31;5.10;99.90
21271;DHT22;10795;50.796;3.860;2022-12-07T08:10:57;5.10;99.90
21271;DHT22;10795;50.796;3.860;2022-12-07T08:13:26;5.00;99.90
21271;DHT22;10795;50.796;3.860;2022-12-07T08:15:51;4.90;99.90
21271;DHT22;10795;50.796;3.860;2022-12-07T08:18:17;4.70;99.90
21271;DHT22;10795;50.796;3.860;2022-12-07T08:20:43;4.50;99.90
21271;DHT22;10795;50.796;3.860;2022-12-07T08:23:10;5.00;99.90
21271;DHT22;10795;50.796;3.860;2022-12-07T08:25:36;5.30;99.90
21271;DHT22;10795;50.796;3.860;2022-12-07T08:28:03;5.20;99.90
21271;DHT22;10795;50.796;3.860;2022-12-07T08:30:29;5.30;99.90
21271;DHT22;10795;50.796;3.860;2022-12-07T08:32:55;5.30;99.90
21271;DHT22;10795;50.796;3.860;2022-12-07T08:35:21;5.00;99.90
21271;DHT22;10795;50.796;3.860;2022-12-07T08:37:47;4.90;99.90
21271;DHT22;10795;50.796;3.860;2022-12-07T08:40:14;5.10;99.90
21271;DHT22;10795;50.796;3.860;2022-12-07T08:42:48;5.10;99.90
21271;DHT22;10795;50.796;3.860;2022-12-07T08:45:15;5.20;99.90
21271;DHT22;10795;50.796;3.860;2022-12-07T08:47:45;5.10;99.90
21271;DHT22;10795;50.796;3.860;2022-12-07T08:50:11;5.30;99.90
21271;DHT22;10795;50.796;3.860;2022-12-07T08:52:37;5.40;99.90
21271;DHT22;10795;50.796;3.860;2022-12-07T08:55:05;5.50;99.90
21271;DHT22;10795;50.796;3.860;2022-12-07T08:57:33;5.50;99.90
21271;DHT22;10795;50.796;3.860;2022-12-07T09:00:00;5.50;99.90
21271;DHT22;10795;50.796;3.860;2022-12-07T09:02:25;5.40;99.90
21271;DHT22;10795;50.796;3.860;2022-12-07T09:04:51;5.40;99.90
21271;DHT22;10795;50.796;3.860;2022-12-07T09:07:17;5.50;99.90
21271;DHT22;10795;50.796;3.860;2022-12-07T09:09:43;5.70;99.90
21271;DHT22;10795;50.796;3.860;2022-12-07T09:12:09;5.80;99.90
21271;DHT22;10795;50.796;3.860;2022-12-07T09:14:35;5.80;99.90
21271;DHT22;10795;50.796;3.860;2022-12-07T09:17:12;5.80;99.90
21271;DHT22;10795;50.796;3.860;2022-12-07T09:19:38;5.80;99.90
21271;DHT22;10795;50.796;3.860;2022-12-07T09:22:05;6.10;99.90
21271;DHT22;10795;50.796;3.860;2022-12-07T09:24:33;6.20;99.90
21271;DHT22;10795;50.796;3.860;2022-12-07T09:26:59;6.50;99.90
21271;DHT22;10795;50.796;3.860;2022-12-07T09:29:25;6.50;99.90
21271;DHT22;10795;50.796;3.860;2022-12-07T09:31:53;6.50;99.90
21271;DHT22;10795;50.796;3.860;2022-12-07T09:34:19;6.70;99.90
21271;DHT22;10795;50.796;3.860;2022-12-07T09:36:45;6.80;99.90
21271;DHT22;10795;50.796;3.860;2022-12-07T09:39:11;6.80;99.90
21271;DHT22;10795;50.796;3.860;2022-12-07T09:41:41;6.80;99.90
21271;DHT22;10795;50.796;3.860;2022-12-07T09:44:14;6.60;99.90
21271;DHT22;10795;50.796;3.860;2022-12-07T09:46:43;6.70;99.90
21271;DHT22;10795;50.796;3.860;2022-12-07T09:49:31;6.60;99.90
21271;DHT22;10795;50.796;3.860;2022-12-07T09:54:42;6.90;99.90
21271;DHT22;10795;50.796;3.860;2022-12-07T09:57:11;6.70;99.90
21271;DHT22;10795;50.796;3.860;2022-12-07T09:59:38;6.50;99.90
21271;DHT22;10795;50.796;3.860;2022-12-07T10:02:24;6.40;99.90
21271;DHT22;10795;50.796;3.860;2022-12-07T10:04:50;6.40;99.90
21271;DHT22;10795;50.796;3.860;2022-12-07T10:07:15;6.50;99.90
21271;DHT22;10795;50.796;3.860;2022-12-07T10:09:41;6.60;99.90
21271;DHT22;10795;50.796;3.860;2022-12-07T10:12:12;6.60;99.90
21271;DHT22;10795;50.796;3.860;2022-12-07T10:14:53;6.90;99.90
21271;DHT22;10795;50.796;3.860;2022-12-07T10:17:33;7.10;99.90
21271;DHT22;10795;50.796;3.860;2022-12-07T10:20:21;7.40;99.90
21271;DHT22;10795;50.796;3.860;2022-12-07T10:25:32;7.80;99.90
21271;DHT22;10795;50.796;3.860;2022-12-07T10:28:02;7.90;99.90
21271;DHT22;10795;50.796;3.860;2022-12-07T10:30:28;7.90;99.90
21271;DHT22;10795;50.796;3.860;2022-12-07T10:32:55;7.70;99.90
21271;DHT22;10795;50.796;3.860;2022-12-07T10:35:23;7.90;99.90
21271;DHT22;10795;50.796;3.860;2022-12-07T10:37:51;8.00;99.90
21271;DHT22;10795;50.796;3.860;2022-12-07T10:43:20;8.00;99.90
21271;DHT22;10795;50.796;3.860;2022-12-07T10:46:07;7.90;99.90
21271;DHT22;10795;50.796;3.860;2022-12-07T10:51:51;8.30;99.90
21271;DHT22;10795;50.796;3.860;2022-12-07T10:55:04;8.40;99.90
21271;DHT22;10795;50.796;3.860;2022-12-07T11:00:25;8.60;99.90
21271;DHT22;10795;50.796;3.860;2022-12-07T11:05:49;7.80;99.90
21271;DHT22;10795;50.796;3.860;2022-12-07T11:08:41;8.30;99.90
21271;DHT22;10795;50.796;3.860;2022-12-07T11:11:14;7.90;99.90
21271;DHT22;10795;50.796;3.860;2022-12-07T11:21:48;7.80;99.90
21271;DHT22;10795;50.796;3.860;2022-12-07T11:24:20;7.40;99.90
21271;DHT22;10795;50.796;3.860;2022-12-07T11:29:42;7.00;99.90
21271;DHT22;10795;50.796;3.860;2022-12-07T11:37:38;7.30;99.90
21271;DHT22;10795;50.796;3.860;2022-12-07T11:40:30;7.30;99.90
21271;DHT22;10795;50.796;3.860;2022-12-07T11:46:08;7.50;99.90
21271;DHT22;10795;50.796;3.860;2022-12-07T11:48:46;7.50;99.90
21271;DHT22;10795;50.796;3.860;2022-12-07T11:51:13;7.60;99.90
21271;DHT22;10795;50.796;3.860;2022-12-07T11:53:52;7.50;99.90
21271;DHT22;10795;50.796;3.860;2022-12-07T11:56:23;7.80;99.90
21271;DHT22;10795;50.796;3.860;2022-12-07T11:58:58;7.90;99.90
21271;DHT22;10795;50.796;3.860;2022-12-07T12:06:34;8.30;99.90
21271;DHT22;10795;50.796;3.860;2022-12-07T12:09:21;8.10;99.90
21271;DHT22;10795;50.796;3.860;2022-12-07T12:20:29;8.60;99.90
21271;DHT22;10795;50.796;3.860;2022-12-07T12:23:05;8.70;99.90
21271;DHT22;10795;50.796;3.860;2022-12-07T12:25:46;8.10;99.90
21271;DHT22;10795;50.796;3.860;2022-12-07T12:28:32;7.60;99.90
21271;DHT22;10795;50.796;3.860;2022-12-07T12:31:16;7.70;99.90
21271;DHT22;10795;50.796;3.860;2022-12-07T12:33:56;7.80;99.90
21271;DHT22;10795;50.796;3.860;2022-12-07T12:36:26;8.10;99.90
21271;DHT22;10795;50.796;3.860;2022-12-07T12:47:00;7.70;99.90
21271;DHT22;10795;50.796;3.860;2022-12-07T12:49:42;7.70;99.90
21271;DHT22;10795;50.796;3.860;2022-12-07T12:52:55;7.60;99.90
21271;DHT22;10795;50.796;3.860;2022-12-07T12:55:12;7.80;99.90
21271;DHT22;10795;50.796;3.860;2022-12-07T12:57:38;8.20;99.90
21271;DHT22;10795;50.796;3.860;2022-12-07T13:00:36;8.90;99.90
21271;DHT22;10795;50.796;3.860;2022-12-07T13:03:02;8.90;99.90
21271;DHT22;10795;50.796;3.860;2022-12-07T13:05:30;9.10;99.90
21271;DHT22;10795;50.796;3.860;2022-12-07T13:07:57;9.10;99.90
21271;DHT22;10795;50.796;3.860;2022-12-07T13:15:43;8.00;99.90
21271;DHT22;10795;50.796;3.860;2022-12-07T13:21:47;7.90;99.90
21271;DHT22;10795;50.796;3.860;2022-12-07T13:26:23;7.70;99.90
21271;DHT22;10795;50.796;3.860;2022-12-07T13:31:45;7.40;99.90
21271;DHT22;10795;50.796;3.860;2022-12-07T13:34:37;7.50;99.90
21271;DHT22;10795;50.796;3.860;2022-12-07T13:39:52;8.10;99.90
21271;DHT22;10795;50.796;3.860;2022-12-07T13:44:55;7.80;99.90
21271;DHT22;10795;50.796;3.860;2022-12-07T13:47:49;7.40;99.90
21271;DHT22;10795;50.796;3.860;2022-12-07T13:50:25;7.20;99.90
21271;DHT22;10795;50.796;3.860;2022-12-07T13:52:55;7.30;99.90
21271;DHT22;10795;50.796;3.860;2022-12-07T13:55:21;7.40;99.90
21271;DHT22;10795;50.796;3.860;2022-12-07T13:57:50;7.40;99.90
21271;DHT22;10795;50.796;3.860;2022-12-07T14:00:20;7.40;99.90
21271;DHT22;10795;50.796;3.860;2022-12-07T14:05:30;7.20;99.90
21271;DHT22;10795;50.796;3.860;2022-12-07T14:07:59;7.00;99.90
21271;DHT22;10795;50.796;3.860;2022-12-07T14:10:33;7.00;99.90
21271;DHT22;10795;50.796;3.860;2022-12-07T14:13:02;7.10;99.90
21271;DHT22;10795;50.796;3.860;2022-12-07T14:15:31;7.20;99.90
21271;DHT22;10795;50.796;3.860;2022-12-07T14:17:58;7.20;99.90
21271;DHT22;10795;50.796;3.860;2022-12-07T14:20:40;7.20;99.90
21271;DHT22;10795;50.796;3.860;2022-12-07T14:23:22;7.10;99.90
21271;DHT22;10795;50.796;3.860;2022-12-07T14:25:52;7.20;99.90
21271;DHT22;10795;50.796;3.860;2022-12-07T14:28:44;7.10;99.90
21271;DHT22;10795;50.796;3.860;2022-12-07T14:31:16;7.20;99.90
21271;DHT22;10795;50.796;3.860;2022-12-07T14:33:42;7.40;99.90
21271;DHT22;10795;50.796;3.860;2022-12-07T14:36:13;7.50;99.90
21271;DHT22;10795;50.796;3.860;2022-12-07T14:38:39;7.30;99.90
21271;DHT22;10795;50.796;3.860;2022-12-07T14:41:17;7.20;99.90
21271;DHT22;10795;50.796;3.860;2022-12-07T14:44:10;7.30;99.90
21271;DHT22;10795;50.796;3.860;2022-12-07T14:46:36;6.80;99.90
21271;DHT22;10795;50.796;3.860;2022-12-07T14:49:02;6.90;99.90
21271;DHT22;10795;50.796;3.860;2022-12-07T14:51:28;6.80;99.90
21271;DHT22;10795;50.796;3.860;2022-12-07T14:53:54;7.00;99.90
21271;DHT22;10795;50.796;3.860;2022-12-07T14:56:20;7.10;99.90
21271;DHT22;10795;50.796;3.860;2022-12-07T14:58:46;7.10;99.90
21271;DHT22;10795;50.796;3.860;2022-12-07T15:01:14;6.90;99.90
21271;DHT22;10795;50.796;3.860;2022-12-07T15:03:39;7.10;99.90
21271;DHT22;10795;50.796;3.860;2022-12-07T15:06:06;7.00;99.90
21271;DHT22;10795;50.796;3.860;2022-12-07T15:08:33;7.00;99.90
21271;DHT22;10795;50.796;3.860;2022-12-07T15:10:59;6.80;99.90
21271;DHT22;10795;50.796;3.860;2022-12-07T15:13:24;6.90;99.90
21271;DHT22;10795;50.796;3.860;2022-12-07T15:16:14;6.80;99.90
21271;DHT22;10795;50.796;3.860;2022-12-07T15:18:42;6.80;99.90
21271;DHT22;10795;50.796;3.860;2022-12-07T15:21:13;6.40;99.90
21271;DHT22;10795;50.796;3.860;2022-12-07T15:23:39;6.40;99.90
21271;DHT22;10795;50.796;3.860;2022-12-07T15:26:05;6.50;99.90
21271;DHT22;10795;50.796;3.860;2022-12-07T15:28:31;6.50;99.90
21271;DHT22;10795;50.796;3.860;2022-12-07T15:30:57;6.20;99.90
21271;DHT22;10795;50.796;3.860;2022-12-07T15:33:22;6.10;99.90
21271;DHT22;10795;50.796;3.860;2022-12-07T15:35:48;6.20;99.90
21271;DHT22;10795;50.796;3.860;2022-12-07T15:38:14;6.00;99.90
21271;DHT22;10795;50.796;3.860;2022-12-07T15:40:40;6.30;99.90
21271;DHT22;10795;50.796;3.860;2022-12-07T15:43:08;5.90;99.90
21271;DHT22;10795;50.796;3.860;2022-12-07T15:45:54;6.20;99.90
21271;DHT22;10795;50.796;3.860;2022-12-07T15:48:20;6.10;99.90
21271;DHT22;10795;50.796;3.860;2022-12-07T15:50:46;6.00;99.90
21271;DHT22;10795;50.796;3.860;2022-12-07T15:53:11;6.00;99.90
21271;DHT22;10795;50.796;3.860;2022-12-07T15:55:40;6.10;99.90
21271;DHT22;10795;50.796;3.860;2022-12-07T15:58:07;5.80;99.90
21271;DHT22;10795;50.796;3.860;2022-12-07T16:00:33;5.80;99.90
21271;DHT22;10795;50.796;3.860;2022-12-07T16:02:58;5.90;99.90
21271;DHT22;10795;50.796;3.860;2022-12-07T16:05:24;5.90;99.90
21271;DHT22;10795;50.796;3.860;2022-12-07T16:07:50;6.30;99.90
21271;DHT22;10795;50.796;3.860;2022-12-07T16:10:16;6.40;99.90
21271;DHT22;10795;50.796;3.860;2022-12-07T16:12:41;6.60;99.90
21271;DHT22;10795;50.796;3.860;2022-12-07T16:15:08;6.30;99.90
21271;DHT22;10795;50.796;3.860;2022-12-07T16:17:33;6.10;99.90
21271;DHT22;10795;50.796;3.860;2022-12-07T16:19:59;6.00;99.90
21271;DHT22;10795;50.796;3.860;2022-12-07T16:22:25;5.80;99.90
21271;DHT22;10795;50.796;3.860;2022-12-07T16:24:50;5.70;99.90
21271;DHT22;10795;50.796;3.860;2022-12-07T16:27:16;5.70;99.90
21271;DHT22;10795;50.796;3.860;2022-12-07T16:29:42;5.80;99.90
21271;DHT22;10795;50.796;3.860;2022-12-07T16:32:08;5.80;99.90
21271;DHT22;10795;50.796;3.860;2022-12-07T16:34:33;5.60;99.90
21271;DHT22;10795;50.796;3.860;2022-12-07T16:36:59;5.40;99.90
21271;DHT22;10795;50.796;3.860;2022-12-07T16:39:25;5.40;99.90
21271;DHT22;10795;50.796;3.860;2022-12-07T16:41:51;5.40;99.90
21271;DHT22;10795;50.796;3.860;2022-12-07T16:44:18;5.40;99.90
21271;DHT22;10795;50.796;3.860;2022-12-07T16:46:43;5.30;99.90
21271;DHT22;10795;50.796;3.860;2022-12-07T16:49:14;5.30;99.90
21271;DHT22;10795;50.796;3.860;2022-12-07T16:51:40;5.30;99.90
21271;DHT22;10795;50.796;3.860;2022-12-07T16:54:10;5.20;99.90
21271;DHT22;10795;50.796;3.860;2022-12-07T16:56:36;5.20;99.90
21271;DHT22;10795;50.796;3.860;2022-12-07T16:59:02;5.10;99.90
21271;DHT22;10795;50.796;3.860;2022-12-07T17:01:27;5.30;99.90
21271;DHT22;10795;50.796;3.860;2022-12-07T17:03:56;5.40;99.90
21271;DHT22;10795;50.796;3.860;2022-12-07T17:06:27;5.30;99.90
21271;DHT22;10795;50.796;3.860;2022-12-07T17:08:53;5.60;99.90
21271;DHT22;10795;50.796;3.860;2022-12-07T17:11:28;5.50;99.90
21271;DHT22;10795;50.796;3.860;2022-12-07T17:13:54;5.80;99.90
21271;DHT22;10795;50.796;3.860;2022-12-07T17:16:39;5.50;99.90
21271;DHT22;10795;50.796;3.860;2022-12-07T17:19:06;5.40;99.90
21271;DHT22;10795;50.796;3.860;2022-12-07T17:21:32;5.40;99.90
21271;DHT22;10795;50.796;3.860;2022-12-07T17:24:02;5.40;99.90
21271;DHT22;10795;50.796;3.860;2022-12-07T17:26:28;5.30;99.90
21271;DHT22;10795;50.796;3.860;2022-12-07T17:28:55;5.40;99.90
21271;DHT22;10795;50.796;3.860;2022-12-07T17:31:22;5.40;99.90
21271;DHT22;10795;50.796;3.860;2022-12-07T17:33:48;5.70;99.90
21271;DHT22;10795;50.796;3.860;2022-12-07T17:36:22;5.50;99.90
21271;DHT22;10795;50.796;3.860;2022-12-07T17:38:50;5.60;99.90
21271;DHT22;10795;50.796;3.860;2022-12-07T17:41:22;5.60;99.90
21271;DHT22;10795;50.796;3.860;2022-12-07T17:44:12;5.70;99.90
21271;DHT22;10795;50.796;3.860;2022-12-07T17:46:38;5.70;99.90
21271;DHT22;10795;50.796;3.860;2022-12-07T17:49:05;5.70;99.90